sensor_id;sensor_type;location;lat;lon;timestamp;P1;durP1;ratioP1;P2;durP2;ratioP2
36191;SDS011;22233;42.708;23.360;2023-01-15T00:01:43;16.58;;;9.75;;
36191;SDS011;22233;42.708;23.360;2023-01-15T00:04:10;18.15;;;9.35;;
36191;SDS011;22233;42.708;23.360;2023-01-15T00:06:37;19.23;;;10.73;;
36191;SDS011;22233;42.708;23.360;2023-01-15T00:09:04;14.98;;;9.32;;
36191;SDS011;22233;42.708;23.360;2023-01-15T00:11:30;18.25;;;10.43;;
36191;SDS011;22233;42.708;23.360;2023-01-15T00:13:56;17.50;;;10.10;;
36191;SDS011;22233;42.708;23.360;2023-01-15T00:16:22;20.20;;;10.90;;
36191;SDS011;22233;42.708;23.360;2023-01-15T00:18:49;15.20;;;9.68;;
36191;SDS011;22233;42.708;23.360;2023-01-15T00:21:16;18.58;;;10.00;;
36191;SDS011;22233;42.708;23.360;2023-01-15T00:23:41;16.92;;;9.07;;
36191;SDS011;22233;42.708;23.360;2023-01-15T00:26:27;18.65;;;9.98;;
36191;SDS011;22233;42.708;23.360;2023-01-15T00:29:13;19.05;;;9.35;;
36191;SDS011;22233;42.708;23.360;2023-01-15T00:31:39;15.65;;;8.90;;
36191;SDS011;22233;42.708;23.360;2023-01-15T00:34:05;22.98;;;11.20;;
36191;SDS011;22233;42.708;23.360;2023-01-15T00:36:30;16.45;;;10.68;;
36191;SDS011;22233;42.708;23.360;2023-01-15T00:38:56;17.08;;;10.18;;
36191;SDS011;22233;42.708;23.360;2023-01-15T00:41:22;17.02;;;9.30;;
36191;SDS011;22233;42.708;23.360;2023-01-15T00:43:48;16.05;;;9.10;;
36191;SDS011;22233;42.708;23.360;2023-01-15T00:46:13;14.88;;;8.85;;
36191;SDS011;22233;42.708;23.360;2023-01-15T00:48:38;18.00;;;9.15;;
36191;SDS011;22233;42.708;23.360;2023-01-15T00:51:04;17.30;;;9.68;;
36191;SDS011;22233;42.708;23.360;2023-01-15T00:53:30;15.52;;;9.50;;
36191;SDS011;22233;42.708;23.360;2023-01-15T00:55:56;16.50;;;10.20;;
36191;SDS011;22233;42.708;23.360;2023-01-15T00:58:21;17.45;;;10.35;;
36191;SDS011;22233;42.708;23.360;2023-01-15T01:00:54;19.13;;;9.40;;
36191;SDS011;22233;42.708;23.360;2023-01-15T01:03:21;15.85;;;9.93;;
36191;SDS011;22233;42.708;23.360;2023-01-15T01:05:47;16.05;;;9.27;;
36191;SDS011;22233;42.708;23.360;2023-01-15T01:08:12;15.02;;;9.43;;
36191;SDS011;22233;42.708;23.360;2023-01-15T01:10:38;17.55;;;9.77;;
36191;SDS011;22233;42.708;23.360;2023-01-15T01:13:03;19.42;;;9.48;;
36191;SDS011;22233;42.708;23.360;2023-01-15T01:15:29;16.90;;;9.57;;
36191;SDS011;22233;42.708;23.360;2023-01-15T01:17:57;18.83;;;9.90;;
36191;SDS011;22233;42.708;23.360;2023-01-15T01:20:23;19.05;;;10.48;;
36191;SDS011;22233;42.708;23.360;2023-01-15T01:22:48;16.13;;;9.35;;
36191;SDS011;22233;42.708;23.360;2023-01-15T01:25:13;16.67;;;9.60;;
36191;SDS011;22233;42.708;23.360;2023-01-15T01:27:39;17.67;;;9.90;;
36191;SDS011;22233;42.708;23.360;2023-01-15T01:30:04;16.02;;;9.57;;
36191;SDS011;22233;42.708;23.360;2023-01-15T01:32:30;17.70;;;9.75;;
36191;SDS011;22233;42.708;23.360;2023-01-15T01:34:56;17.58;;;9.38;;
36191;SDS011;22233;42.708;23.360;2023-01-15T01:37:21;15.63;;;9.40;;
36191;SDS011;22233;42.708;23.360;2023-01-15T01:39:47;15.30;;;9.48;;
36191;SDS011;22233;42.708;23.360;2023-01-15T01:42:14;28.65;;;13.98;;
36191;SDS011;22233;42.708;23.360;2023-01-15T01:47:10;18.85;;;10.15;;
36191;SDS011;22233;42.708;23.360;2023-01-15T01:49:52;15.63;;;9.90;;
36191;SDS011;22233;42.708;23.360;2023-01-15T01:52:25;17.20;;;10.13;;
36191;SDS011;22233;42.708;23.360;2023-01-15T01:54:54;16.05;;;9.95;;
36191;SDS011;22233;42.708;23.360;2023-01-15T01:57:20;17.90;;;9.23;;
36191;SDS011;22233;42.708;23.360;2023-01-15T01:59:47;17.05;;;9.45;;
36191;SDS011;22233;42.708;23.360;2023-01-15T02:02:13;21.67;;;10.60;;
36191;SDS011;22233;42.708;23.360;2023-01-15T02:04:44;20.48;;;10.90;;
36191;SDS011;22233;42.708;23.360;2023-01-15T02:07:09;22.27;;;10.75;;
36191;SDS011;22233;42.708;23.360;2023-01-15T02:09:35;17.48;;;9.38;;
36191;SDS011;22233;42.708;23.360;2023-01-15T02:12:05;17.08;;;9.95;;
36191;SDS011;22233;42.708;23.360;2023-01-15T02:14:38;17.25;;;9.52;;
36191;SDS011;22233;42.708;23.360;2023-01-15T02:17:31;15.30;;;9.27;;
36191;SDS011;22233;42.708;23.360;2023-01-15T02:20:09;16.05;;;8.80;;
36191;SDS011;22233;42.708;23.360;2023-01-15T02:22:53;19.70;;;9.15;;
36191;SDS011;22233;42.708;23.360;2023-01-15T02:28:11;16.13;;;9.48;;
36191;SDS011;22233;42.708;23.360;2023-01-15T02:31:01;18.15;;;9.48;;
36191;SDS011;22233;42.708;23.360;2023-01-15T02:33:38;18.73;;;10.02;;
36191;SDS011;22233;42.708;23.360;2023-01-15T02:36:07;16.15;;;8.93;;
36191;SDS011;22233;42.708;23.360;2023-01-15T02:38:36;15.88;;;8.70;;
36191;SDS011;22233;42.708;23.360;2023-01-15T02:41:07;15.02;;;8.73;;
36191;SDS011;22233;42.708;23.360;2023-01-15T02:43:40;13.43;;;8.90;;
36191;SDS011;22233;42.708;23.360;2023-01-15T02:46:10;15.07;;;8.55;;
36191;SDS011;22233;42.708;23.360;2023-01-15T02:48:38;13.65;;;8.68;;
36191;SDS011;22233;42.708;23.360;2023-01-15T02:51:11;17.90;;;8.52;;
36191;SDS011;22233;42.708;23.360;2023-01-15T02:53:40;16.17;;;9.10;;
36191;SDS011;22233;42.708;23.360;2023-01-15T02:56:09;13.60;;;8.50;;
36191;SDS011;22233;42.708;23.360;2023-01-15T02:58:39;13.85;;;7.47;;
36191;SDS011;22233;42.708;23.360;2023-01-15T03:01:11;16.30;;;9.70;;
36191;SDS011;22233;42.708;23.360;2023-01-15T03:03:58;15.63;;;8.80;;
36191;SDS011;22233;42.708;23.360;2023-01-15T03:06:26;11.35;;;7.47;;
36191;SDS011;22233;42.708;23.360;2023-01-15T03:08:59;12.20;;;7.82;;
36191;SDS011;22233;42.708;23.360;2023-01-15T03:11:25;17.52;;;8.25;;
36191;SDS011;22233;42.708;23.360;2023-01-15T03:16:39;13.65;;;7.63;;
36191;SDS011;22233;42.708;23.360;2023-01-15T03:21:56;14.35;;;7.93;;
36191;SDS011;22233;42.708;23.360;2023-01-15T03:24:41;13.32;;;8.02;;
36191;SDS011;22233;42.708;23.360;2023-01-15T03:27:08;13.10;;;8.20;;
36191;SDS011;22233;42.708;23.360;2023-01-15T03:29:39;16.70;;;9.43;;
36191;SDS011;22233;42.708;23.360;2023-01-15T03:32:07;15.68;;;10.18;;
36191;SDS011;22233;42.708;23.360;2023-01-15T03:34:36;20.08;;;10.40;;
36191;SDS011;22233;42.708;23.360;2023-01-15T03:37:06;19.10;;;9.38;;
36191;SDS011;22233;42.708;23.360;2023-01-15T03:39:31;19.63;;;9.82;;
36191;SDS011;22233;42.708;23.360;2023-01-15T03:44:39;17.67;;;9.90;;
36191;SDS011;22233;42.708;23.360;2023-01-15T03:55:32;12.20;;;7.22;;
36191;SDS011;22233;42.708;23.360;2023-01-15T03:58:05;14.07;;;7.82;;
36191;SDS011;22233;42.708;23.360;2023-01-15T04:00:45;16.00;;;7.50;;
36191;SDS011;22233;42.708;23.360;2023-01-15T04:03:14;12.07;;;7.00;;
36191;SDS011;22233;42.708;23.360;2023-01-15T04:05:42;12.00;;;7.15;;
36191;SDS011;22233;42.708;23.360;2023-01-15T04:08:08;12.00;;;7.63;;
36191;SDS011;22233;42.708;23.360;2023-01-15T04:10:36;12.32;;;7.35;;
36191;SDS011;22233;42.708;23.360;2023-01-15T04:13:02;14.50;;;8.18;;
36191;SDS011;22233;42.708;23.360;2023-01-15T04:15:27;13.63;;;7.80;;
36191;SDS011;22233;42.708;23.360;2023-01-15T04:17:52;11.18;;;7.10;;
36191;SDS011;22233;42.708;23.360;2023-01-15T04:20:18;12.25;;;7.47;;
36191;SDS011;22233;42.708;23.360;2023-01-15T04:22:43;13.40;;;7.70;;
36191;SDS011;22233;42.708;23.360;2023-01-15T04:25:09;11.63;;;6.75;;
36191;SDS011;22233;42.708;23.360;2023-01-15T04:27:34;12.77;;;7.30;;
36191;SDS011;22233;42.708;23.360;2023-01-15T04:30:00;12.50;;;8.23;;
36191;SDS011;22233;42.708;23.360;2023-01-15T04:32:25;11.68;;;6.85;;
36191;SDS011;22233;42.708;23.360;2023-01-15T04:34:51;11.90;;;7.60;;
36191;SDS011;22233;42.708;23.360;2023-01-15T04:37:18;12.18;;;7.43;;
36191;SDS011;22233;42.708;23.360;2023-01-15T04:39:43;11.63;;;7.57;;
36191;SDS011;22233;42.708;23.360;2023-01-15T04:42:13;11.25;;;7.22;;
36191;SDS011;22233;42.708;23.360;2023-01-15T04:44:58;13.45;;;7.35;;
36191;SDS011;22233;42.708;23.360;2023-01-15T04:47:23;12.13;;;7.53;;
36191;SDS011;22233;42.708;23.360;2023-01-15T04:49:49;10.25;;;6.75;;
36191;SDS011;22233;42.708;23.360;2023-01-15T04:52:14;11.40;;;6.68;;
36191;SDS011;22233;42.708;23.360;2023-01-15T04:54:40;11.07;;;6.00;;
36191;SDS011;22233;42.708;23.360;2023-01-15T04:57:05;11.23;;;6.70;;
36191;SDS011;22233;42.708;23.360;2023-01-15T04:59:31;11.68;;;6.68;;
36191;SDS011;22233;42.708;23.360;2023-01-15T05:01:56;11.98;;;6.97;;
36191;SDS011;22233;42.708;23.360;2023-01-15T05:04:22;11.27;;;6.10;;
36191;SDS011;22233;42.708;23.360;2023-01-15T05:06:48;10.32;;;5.88;;
36191;SDS011;22233;42.708;23.360;2023-01-15T05:09:13;10.32;;;6.40;;
36191;SDS011;22233;42.708;23.360;2023-01-15T05:11:39;10.18;;;6.28;;
36191;SDS011;22233;42.708;23.360;2023-01-15T05:14:05;10.02;;;6.57;;
36191;SDS011;22233;42.708;23.360;2023-01-15T05:16:31;11.57;;;6.85;;
36191;SDS011;22233;42.708;23.360;2023-01-15T05:18:59;11.20;;;6.63;;
36191;SDS011;22233;42.708;23.360;2023-01-15T05:21:30;12.98;;;7.32;;
36191;SDS011;22233;42.708;23.360;2023-01-15T05:23:57;21.70;;;10.18;;
36191;SDS011;22233;42.708;23.360;2023-01-15T05:26:24;13.52;;;7.47;;
36191;SDS011;22233;42.708;23.360;2023-01-15T05:28:55;9.93;;;6.10;;
36191;SDS011;22233;42.708;23.360;2023-01-15T05:31:22;9.50;;;6.13;;
36191;SDS011;22233;42.708;23.360;2023-01-15T05:33:49;13.05;;;7.25;;
36191;SDS011;22233;42.708;23.360;2023-01-15T05:36:17;12.20;;;7.07;;
36191;SDS011;22233;42.708;23.360;2023-01-15T05:38:44;12.07;;;6.10;;
36191;SDS011;22233;42.708;23.360;2023-01-15T05:41:11;10.57;;;6.40;;
36191;SDS011;22233;42.708;23.360;2023-01-15T05:44:02;11.43;;;5.40;;
36191;SDS011;22233;42.708;23.360;2023-01-15T05:46:29;9.10;;;5.05;;
36191;SDS011;22233;42.708;23.360;2023-01-15T05:48:58;12.57;;;5.90;;
36191;SDS011;22233;42.708;23.360;2023-01-15T05:51:32;11.00;;;5.88;;
36191;SDS011;22233;42.708;23.360;2023-01-15T05:56:24;10.60;;;5.65;;
36191;SDS011;22233;42.708;23.360;2023-01-15T05:58:50;7.03;;;4.90;;
36191;SDS011;22233;42.708;23.360;2023-01-15T06:01:16;9.48;;;4.95;;
36191;SDS011;22233;42.708;23.360;2023-01-15T06:03:41;8.50;;;5.10;;
36191;SDS011;22233;42.708;23.360;2023-01-15T06:06:09;7.68;;;4.28;;
36191;SDS011;22233;42.708;23.360;2023-01-15T06:08:37;7.38;;;4.68;;
36191;SDS011;22233;42.708;23.360;2023-01-15T06:11:03;8.90;;;5.40;;
36191;SDS011;22233;42.708;23.360;2023-01-15T06:13:31;11.35;;;6.53;;
36191;SDS011;22233;42.708;23.360;2023-01-15T06:15:57;16.98;;;8.70;;
36191;SDS011;22233;42.708;23.360;2023-01-15T06:18:23;18.77;;;8.40;;
36191;SDS011;22233;42.708;23.360;2023-01-15T06:20:49;17.08;;;9.57;;
36191;SDS011;22233;42.708;23.360;2023-01-15T06:23:15;17.38;;;9.25;;
36191;SDS011;22233;42.708;23.360;2023-01-15T06:25:41;15.85;;;8.93;;
36191;SDS011;22233;42.708;23.360;2023-01-15T06:28:07;16.42;;;9.10;;
36191;SDS011;22233;42.708;23.360;2023-01-15T06:30:34;14.95;;;8.07;;
36191;SDS011;22233;42.708;23.360;2023-01-15T06:33:01;15.32;;;8.25;;
36191;SDS011;22233;42.708;23.360;2023-01-15T06:35:26;14.88;;;8.23;;
36191;SDS011;22233;42.708;23.360;2023-01-15T06:37:52;14.60;;;7.28;;
36191;SDS011;22233;42.708;23.360;2023-01-15T06:40:17;19.10;;;10.07;;
36191;SDS011;22233;42.708;23.360;2023-01-15T06:42:43;14.25;;;7.97;;
36191;SDS011;22233;42.708;23.360;2023-01-15T06:45:29;15.38;;;8.75;;
36191;SDS011;22233;42.708;23.360;2023-01-15T06:48:20;14.35;;;7.50;;
36191;SDS011;22233;42.708;23.360;2023-01-15T06:50:45;12.95;;;7.90;;
36191;SDS011;22233;42.708;23.360;2023-01-15T06:53:10;15.63;;;7.97;;
36191;SDS011;22233;42.708;23.360;2023-01-15T06:55:37;16.47;;;8.70;;
36191;SDS011;22233;42.708;23.360;2023-01-15T06:58:03;11.82;;;7.35;;
36191;SDS011;22233;42.708;23.360;2023-01-15T07:00:28;12.07;;;7.82;;
36191;SDS011;22233;42.708;23.360;2023-01-15T07:02:53;12.25;;;6.78;;
36191;SDS011;22233;42.708;23.360;2023-01-15T07:05:19;13.40;;;7.85;;
36191;SDS011;22233;42.708;23.360;2023-01-15T07:07:44;16.30;;;8.57;;
36191;SDS011;22233;42.708;23.360;2023-01-15T07:10:10;11.82;;;6.95;;
36191;SDS011;22233;42.708;23.360;2023-01-15T07:12:35;13.80;;;7.90;;
36191;SDS011;22233;42.708;23.360;2023-01-15T07:15:01;14.05;;;8.48;;
36191;SDS011;22233;42.708;23.360;2023-01-15T07:17:26;13.73;;;8.02;;
36191;SDS011;22233;42.708;23.360;2023-01-15T07:19:52;15.00;;;9.02;;
36191;SDS011;22233;42.708;23.360;2023-01-15T07:22:17;16.33;;;9.38;;
36191;SDS011;22233;42.708;23.360;2023-01-15T07:24:43;17.27;;;9.55;;
36191;SDS011;22233;42.708;23.360;2023-01-15T07:27:08;17.30;;;9.35;;
36191;SDS011;22233;42.708;23.360;2023-01-15T07:29:34;23.45;;;12.75;;
36191;SDS011;22233;42.708;23.360;2023-01-15T07:32:00;18.02;;;9.27;;
36191;SDS011;22233;42.708;23.360;2023-01-15T07:34:25;12.80;;;7.95;;
36191;SDS011;22233;42.708;23.360;2023-01-15T07:36:51;16.33;;;8.70;;
36191;SDS011;22233;42.708;23.360;2023-01-15T07:39:16;19.15;;;9.82;;
36191;SDS011;22233;42.708;23.360;2023-01-15T07:41:42;26.05;;;12.45;;
36191;SDS011;22233;42.708;23.360;2023-01-15T07:44:26;19.25;;;9.95;;
36191;SDS011;22233;42.708;23.360;2023-01-15T07:47:13;20.92;;;10.73;;
36191;SDS011;22233;42.708;23.360;2023-01-15T07:50:02;19.02;;;9.60;;
36191;SDS011;22233;42.708;23.360;2023-01-15T07:52:30;21.67;;;10.70;;
36191;SDS011;22233;42.708;23.360;2023-01-15T07:54:55;19.45;;;11.13;;
36191;SDS011;22233;42.708;23.360;2023-01-15T07:57:21;17.35;;;11.57;;
36191;SDS011;22233;42.708;23.360;2023-01-15T07:59:47;20.67;;;10.77;;
36191;SDS011;22233;42.708;23.360;2023-01-15T08:02:13;19.92;;;12.77;;
36191;SDS011;22233;42.708;23.360;2023-01-15T08:04:39;21.90;;;12.15;;
36191;SDS011;22233;42.708;23.360;2023-01-15T08:07:05;19.27;;;12.02;;
36191;SDS011;22233;42.708;23.360;2023-01-15T08:09:31;25.35;;;14.13;;
36191;SDS011;22233;42.708;23.360;2023-01-15T08:12:00;21.02;;;12.57;;
36191;SDS011;22233;42.708;23.360;2023-01-15T08:14:45;22.17;;;11.55;;
36191;SDS011;22233;42.708;23.360;2023-01-15T08:17:32;21.35;;;12.68;;
36191;SDS011;22233;42.708;23.360;2023-01-15T08:19:57;20.10;;;11.13;;
36191;SDS011;22233;42.708;23.360;2023-01-15T08:22:23;23.30;;;12.88;;
36191;SDS011;22233;42.708;23.360;2023-01-15T08:24:48;18.25;;;10.80;;
36191;SDS011;22233;42.708;23.360;2023-01-15T08:27:14;17.50;;;11.20;;
36191;SDS011;22233;42.708;23.360;2023-01-15T08:29:39;18.55;;;10.88;;
36191;SDS011;22233;42.708;23.360;2023-01-15T08:32:05;19.48;;;10.93;;
36191;SDS011;22233;42.708;23.360;2023-01-15T08:34:30;17.95;;;10.55;;
36191;SDS011;22233;42.708;23.360;2023-01-15T08:36:56;16.60;;;9.65;;
36191;SDS011;22233;42.708;23.360;2023-01-15T08:39:24;17.48;;;9.73;;
36191;SDS011;22233;42.708;23.360;2023-01-15T08:41:53;17.23;;;9.10;;
36191;SDS011;22233;42.708;23.360;2023-01-15T08:44:19;15.47;;;9.40;;
36191;SDS011;22233;42.708;23.360;2023-01-15T08:46:46;15.60;;;9.68;;
36191;SDS011;22233;42.708;23.360;2023-01-15T08:49:12;19.35;;;10.52;;
36191;SDS011;22233;42.708;23.360;2023-01-15T08:51:38;14.00;;;9.40;;
36191;SDS011;22233;42.708;23.360;2023-01-15T08:54:04;20.92;;;9.43;;
36191;SDS011;22233;42.708;23.360;2023-01-15T08:56:29;17.15;;;9.57;;
36191;SDS011;22233;42.708;23.360;2023-01-15T08:58:54;17.13;;;9.80;;
36191;SDS011;22233;42.708;23.360;2023-01-15T09:01:20;18.92;;;10.25;;
36191;SDS011;22233;42.708;23.360;2023-01-15T09:03:45;17.10;;;10.18;;
36191;SDS011;22233;42.708;23.360;2023-01-15T09:06:10;17.88;;;9.90;;
36191;SDS011;22233;42.708;23.360;2023-01-15T09:08:37;18.67;;;10.88;;
36191;SDS011;22233;42.708;23.360;2023-01-15T09:11:04;16.17;;;9.70;;
36191;SDS011;22233;42.708;23.360;2023-01-15T09:13:31;15.10;;;9.65;;
36191;SDS011;22233;42.708;23.360;2023-01-15T09:16:00;15.95;;;9.43;;
36191;SDS011;22233;42.708;23.360;2023-01-15T09:18:27;20.45;;;12.73;;
36191;SDS011;22233;42.708;23.360;2023-01-15T09:20:53;17.40;;;10.30;;
36191;SDS011;22233;42.708;23.360;2023-01-15T09:23:19;18.45;;;10.30;;
36191;SDS011;22233;42.708;23.360;2023-01-15T09:25:55;14.43;;;8.90;;
36191;SDS011;22233;42.708;23.360;2023-01-15T09:28:22;20.10;;;11.18;;
36191;SDS011;22233;42.708;23.360;2023-01-15T09:30:48;17.98;;;11.00;;
36191;SDS011;22233;42.708;23.360;2023-01-15T09:33:13;16.75;;;9.68;;
36191;SDS011;22233;42.708;23.360;2023-01-15T09:35:39;17.10;;;9.18;;
36191;SDS011;22233;42.708;23.360;2023-01-15T09:38:08;20.15;;;9.73;;
36191;SDS011;22233;42.708;23.360;2023-01-15T09:40:46;16.38;;;9.65;;
36191;SDS011;22233;42.708;23.360;2023-01-15T09:51:08;15.55;;;8.88;;
36191;SDS011;22233;42.708;23.360;2023-01-15T09:56:10;14.95;;;8.73;;
36191;SDS011;22233;42.708;23.360;2023-01-15T09:58:43;17.08;;;9.10;;
36191;SDS011;22233;42.708;23.360;2023-01-15T10:01:11;17.33;;;9.43;;
36191;SDS011;22233;42.708;23.360;2023-01-15T10:03:43;30.90;;;9.43;;
36191;SDS011;22233;42.708;23.360;2023-01-15T10:08:45;13.40;;;8.35;;
36191;SDS011;22233;42.708;23.360;2023-01-15T10:16:13;13.35;;;8.25;;
36191;SDS011;22233;42.708;23.360;2023-01-15T10:18:44;15.23;;;8.23;;
36191;SDS011;22233;42.708;23.360;2023-01-15T10:21:19;13.98;;;7.50;;
36191;SDS011;22233;42.708;23.360;2023-01-15T10:24:01;9.25;;;5.80;;
36191;SDS011;22233;42.708;23.360;2023-01-15T10:32:16;9.85;;;6.10;;
36191;SDS011;22233;42.708;23.360;2023-01-15T10:37:40;11.98;;;7.07;;
36191;SDS011;22233;42.708;23.360;2023-01-15T10:45:24;15.23;;;8.48;;
36191;SDS011;22233;42.708;23.360;2023-01-15T10:48:17;13.07;;;7.68;;
36191;SDS011;22233;42.708;23.360;2023-01-15T10:50:47;14.05;;;7.68;;
36191;SDS011;22233;42.708;23.360;2023-01-15T10:53:24;12.77;;;7.20;;
36191;SDS011;22233;42.708;23.360;2023-01-15T10:56:04;15.95;;;7.70;;
36191;SDS011;22233;42.708;23.360;2023-01-15T10:58:41;15.75;;;7.78;;
36191;SDS011;22233;42.708;23.360;2023-01-15T11:01:20;10.82;;;6.80;;
36191;SDS011;22233;42.708;23.360;2023-01-15T11:03:50;8.60;;;5.57;;
36191;SDS011;22233;42.708;23.360;2023-01-15T11:06:17;11.27;;;7.25;;
36191;SDS011;22233;42.708;23.360;2023-01-15T11:08:45;10.65;;;6.40;;
36191;SDS011;22233;42.708;23.360;2023-01-15T11:11:16;9.52;;;5.85;;
36191;SDS011;22233;42.708;23.360;2023-01-15T11:13:54;10.73;;;5.93;;
36191;SDS011;22233;42.708;23.360;2023-01-15T11:16:39;9.18;;;5.45;;
36191;SDS011;22233;42.708;23.360;2023-01-15T11:19:33;8.20;;;5.10;;
36191;SDS011;22233;42.708;23.360;2023-01-15T11:22:04;7.32;;;5.00;;
36191;SDS011;22233;42.708;23.360;2023-01-15T11:24:53;8.73;;;5.10;;
36191;SDS011;22233;42.708;23.360;2023-01-15T11:27:27;9.10;;;5.22;;
36191;SDS011;22233;42.708;23.360;2023-01-15T11:29:57;8.57;;;5.25;;
36191;SDS011;22233;42.708;23.360;2023-01-15T11:32:28;8.23;;;4.88;;
36191;SDS011;22233;42.708;23.360;2023-01-15T11:34:57;8.30;;;4.72;;
36191;SDS011;22233;42.708;23.360;2023-01-15T11:37:27;6.95;;;4.45;;
36191;SDS011;22233;42.708;23.360;2023-01-15T11:39:54;9.55;;;5.18;;
36191;SDS011;22233;42.708;23.360;2023-01-15T11:42:32;7.13;;;4.85;;
36191;SDS011;22233;42.708;23.360;2023-01-15T11:45:17;6.88;;;4.57;;
36191;SDS011;22233;42.708;23.360;2023-01-15T11:48:13;7.77;;;4.27;;
36191;SDS011;22233;42.708;23.360;2023-01-15T11:51:05;7.00;;;4.82;;
36191;SDS011;22233;42.708;23.360;2023-01-15T11:53:32;6.50;;;4.18;;
36191;SDS011;22233;42.708;23.360;2023-01-15T11:56:03;8.15;;;4.45;;
36191;SDS011;22233;42.708;23.360;2023-01-15T11:58:33;10.95;;;4.28;;
36191;SDS011;22233;42.708;23.360;2023-01-15T12:01:06;9.65;;;4.35;;
36191;SDS011;22233;42.708;23.360;2023-01-15T12:03:33;6.90;;;4.43;;
36191;SDS011;22233;42.708;23.360;2023-01-15T12:06:01;7.63;;;4.72;;
36191;SDS011;22233;42.708;23.360;2023-01-15T12:25:20;7.15;;;4.72;;
36191;SDS011;22233;42.708;23.360;2023-01-15T12:30:40;8.60;;;4.80;;
36191;SDS011;22233;42.708;23.360;2023-01-15T12:35:52;5.80;;;3.83;;
36191;SDS011;22233;42.708;23.360;2023-01-15T12:40:48;6.45;;;4.65;;
36191;SDS011;22233;42.708;23.360;2023-01-15T12:43:26;7.90;;;4.63;;
36191;SDS011;22233;42.708;23.360;2023-01-15T12:46:13;5.38;;;4.40;;
36191;SDS011;22233;42.708;23.360;2023-01-15T12:48:44;7.43;;;3.67;;
36191;SDS011;22233;42.708;23.360;2023-01-15T12:51:17;6.50;;;4.13;;
36191;SDS011;22233;42.708;23.360;2023-01-15T12:53:52;7.70;;;4.60;;
36191;SDS011;22233;42.708;23.360;2023-01-15T12:56:40;8.48;;;5.20;;
36191;SDS011;22233;42.708;23.360;2023-01-15T13:06:43;6.93;;;4.40;;
36191;SDS011;22233;42.708;23.360;2023-01-15T13:09:21;7.47;;;5.20;;
36191;SDS011;22233;42.708;23.360;2023-01-15T13:11:58;6.93;;;4.10;;
36191;SDS011;22233;42.708;23.360;2023-01-15T13:14:24;5.72;;;3.97;;
36191;SDS011;22233;42.708;23.360;2023-01-15T13:16:54;6.97;;;5.10;;
36191;SDS011;22233;42.708;23.360;2023-01-15T13:19:53;9.38;;;5.22;;
36191;SDS011;22233;42.708;23.360;2023-01-15T13:22:30;9.38;;;4.97;;
36191;SDS011;22233;42.708;23.360;2023-01-15T13:25:07;7.15;;;4.55;;
36191;SDS011;22233;42.708;23.360;2023-01-15T13:33:05;6.47;;;4.15;;
36191;SDS011;22233;42.708;23.360;2023-01-15T13:35:42;7.15;;;4.90;;
36191;SDS011;22233;42.708;23.360;2023-01-15T13:38:17;6.95;;;4.75;;
36191;SDS011;22233;42.708;23.360;2023-01-15T13:40:50;9.05;;;4.90;;
36191;SDS011;22233;42.708;23.360;2023-01-15T13:43:26;8.98;;;5.97;;
36191;SDS011;22233;42.708;23.360;2023-01-15T13:45:56;8.25;;;4.97;;
36191;SDS011;22233;42.708;23.360;2023-01-15T13:48:41;10.50;;;5.85;;
36191;SDS011;22233;42.708;23.360;2023-01-15T13:53:50;7.60;;;4.65;;
36191;SDS011;22233;42.708;23.360;2023-01-15T13:56:24;7.40;;;4.82;;
36191;SDS011;22233;42.708;23.360;2023-01-15T13:58:58;6.93;;;4.68;;
36191;SDS011;22233;42.708;23.360;2023-01-15T14:01:35;7.43;;;4.63;;
36191;SDS011;22233;42.708;23.360;2023-01-15T14:06:46;7.95;;;5.15;;
36191;SDS011;22233;42.708;23.360;2023-01-15T14:09:13;8.18;;;5.15;;
36191;SDS011;22233;42.708;23.360;2023-01-15T14:31:23;8.75;;;5.30;;
36191;SDS011;22233;42.708;23.360;2023-01-15T14:36:56;9.35;;;6.15;;
36191;SDS011;22233;42.708;23.360;2023-01-15T14:39:46;8.27;;;5.55;;
36191;SDS011;22233;42.708;23.360;2023-01-15T14:42:22;14.75;;;6.40;;
36191;SDS011;22233;42.708;23.360;2023-01-15T14:45:25;9.45;;;6.47;;
36191;SDS011;22233;42.708;23.360;2023-01-15T14:47:54;10.68;;;7.13;;
36191;SDS011;22233;42.708;23.360;2023-01-15T14:50:23;9.00;;;6.35;;
36191;SDS011;22233;42.708;23.360;2023-01-15T14:52:53;12.20;;;7.45;;
36191;SDS011;22233;42.708;23.360;2023-01-15T14:55:20;12.55;;;7.40;;
36191;SDS011;22233;42.708;23.360;2023-01-15T15:00:35;12.25;;;7.55;;
36191;SDS011;22233;42.708;23.360;2023-01-15T15:03:13;11.80;;;7.35;;
36191;SDS011;22233;42.708;23.360;2023-01-15T15:05:42;15.47;;;8.53;;
36191;SDS011;22233;42.708;23.360;2023-01-15T15:08:10;11.75;;;7.82;;
36191;SDS011;22233;42.708;23.360;2023-01-15T15:10:42;14.45;;;8.75;;
36191;SDS011;22233;42.708;23.360;2023-01-15T15:18:44;14.20;;;8.55;;
36191;SDS011;22233;42.708;23.360;2023-01-15T15:21:26;13.30;;;8.30;;
36191;SDS011;22233;42.708;23.360;2023-01-15T15:26:24;16.90;;;9.18;;
36191;SDS011;22233;42.708;23.360;2023-01-15T15:28:59;14.10;;;8.15;;
36191;SDS011;22233;42.708;23.360;2023-01-15T15:31:47;21.20;;;11.75;;
36191;SDS011;22233;42.708;23.360;2023-01-15T15:36:52;19.98;;;10.68;;
36191;SDS011;22233;42.708;23.360;2023-01-15T15:39:21;19.70;;;10.27;;
36191;SDS011;22233;42.708;23.360;2023-01-15T15:41:47;15.95;;;9.07;;
36191;SDS011;22233;42.708;23.360;2023-01-15T15:44:39;18.42;;;11.00;;
36191;SDS011;22233;42.708;23.360;2023-01-15T15:47:26;18.42;;;10.95;;
36191;SDS011;22233;42.708;23.360;2023-01-15T15:50:26;21.85;;;11.85;;
36191;SDS011;22233;42.708;23.360;2023-01-15T15:52:53;20.08;;;12.45;;
36191;SDS011;22233;42.708;23.360;2023-01-15T15:55:20;21.00;;;11.25;;
36191;SDS011;22233;42.708;23.360;2023-01-15T15:57:49;19.83;;;12.10;;
36191;SDS011;22233;42.708;23.360;2023-01-15T16:00:19;22.63;;;11.95;;
36191;SDS011;22233;42.708;23.360;2023-01-15T16:02:53;18.73;;;10.57;;
36191;SDS011;22233;42.708;23.360;2023-01-15T16:05:26;20.27;;;11.90;;
36191;SDS011;22233;42.708;23.360;2023-01-15T16:08:06;19.17;;;12.13;;
36191;SDS011;22233;42.708;23.360;2023-01-15T16:10:42;20.35;;;11.52;;
36191;SDS011;22233;42.708;23.360;2023-01-15T16:13:20;21.70;;;12.30;;
36191;SDS011;22233;42.708;23.360;2023-01-15T16:15:58;23.05;;;12.15;;
36191;SDS011;22233;42.708;23.360;2023-01-15T16:18:26;18.75;;;10.80;;
36191;SDS011;22233;42.708;23.360;2023-01-15T16:20:55;19.48;;;11.48;;
36191;SDS011;22233;42.708;23.360;2023-01-15T16:23:23;20.15;;;11.80;;
36191;SDS011;22233;42.708;23.360;2023-01-15T16:26:27;20.02;;;10.65;;
36191;SDS011;22233;42.708;23.360;2023-01-15T16:28:50;22.83;;;14.60;;
36191;SDS011;22233;42.708;23.360;2023-01-15T16:31:19;22.52;;;13.20;;
36191;SDS011;22233;42.708;23.360;2023-01-15T16:33:46;32.45;;;17.75;;
36191;SDS011;22233;42.708;23.360;2023-01-15T16:36:17;20.58;;;11.93;;
36191;SDS011;22233;42.708;23.360;2023-01-15T16:38:45;19.92;;;12.40;;
36191;SDS011;22233;42.708;23.360;2023-01-15T16:41:18;37.25;;;22.05;;
36191;SDS011;22233;42.708;23.360;2023-01-15T16:43:49;25.63;;;15.65;;
36191;SDS011;22233;42.708;23.360;2023-01-15T16:46:19;26.50;;;14.85;;
36191;SDS011;22233;42.708;23.360;2023-01-15T16:48:46;20.63;;;12.27;;
36191;SDS011;22233;42.708;23.360;2023-01-15T16:53:50;16.75;;;9.82;;
36191;SDS011;22233;42.708;23.360;2023-01-15T16:58:51;18.10;;;10.73;;
36191;SDS011;22233;42.708;23.360;2023-01-15T17:03:59;26.65;;;13.45;;